sensor_id;sensor_type;location;lat;lon;timestamp;P1;durP1;ratioP1;P2;durP2;ratioP2
45039;SDS011;30778;53.574;7.770;2023-06-10T00:01:54;4.65;;;1.85;;
45039;SDS011;30778;53.574;7.770;2023-06-10T00:04:23;3.72;;;1.77;;
45039;SDS011;30778;53.574;7.770;2023-06-10T00:06:48;6.65;;;2.58;;
45039;SDS011;30778;53.574;7.770;2023-06-10T00:09:17;8.88;;;2.50;;
45039;SDS011;30778;53.574;7.770;2023-06-10T00:11:43;7.75;;;2.75;;
45039;SDS011;30778;53.574;7.770;2023-06-10T00:14:09;5.50;;;2.00;;
45039;SDS011;30778;53.574;7.770;2023-06-10T00:16:35;4.82;;;1.90;;
45039;SDS011;30778;53.574;7.770;2023-06-10T00:19:01;6.05;;;1.42;;
45039;SDS011;30778;53.574;7.770;2023-06-10T00:21:31;8.48;;;1.80;;
45039;SDS011;30778;53.574;7.770;2023-06-10T00:24:08;5.38;;;1.92;;
45039;SDS011;30778;53.574;7.770;2023-06-10T00:26:40;3.08;;;1.83;;
45039;SDS011;30778;53.574;7.770;2023-06-10T00:29:06;6.93;;;2.10;;
45039;SDS011;30778;53.574;7.770;2023-06-10T00:31:33;5.93;;;2.67;;
45039;SDS011;30778;53.574;7.770;2023-06-10T00:34:00;5.95;;;1.52;;
45039;SDS011;30778;53.574;7.770;2023-06-10T00:36:25;8.60;;;2.58;;
45039;SDS011;30778;53.574;7.770;2023-06-10T00:38:51;6.40;;;2.50;;
45039;SDS011;30778;53.574;7.770;2023-06-10T00:41:17;5.35;;;2.10;;
45039;SDS011;30778;53.574;7.770;2023-06-10T00:43:43;4.38;;;2.13;;
45039;SDS011;30778;53.574;7.770;2023-06-10T00:46:08;3.13;;;1.92;;
45039;SDS011;30778;53.574;7.770;2023-06-10T00:48:35;8.93;;;2.55;;
45039;SDS011;30778;53.574;7.770;2023-06-10T00:51:00;9.90;;;2.53;;
45039;SDS011;30778;53.574;7.770;2023-06-10T00:53:26;6.90;;;2.75;;
45039;SDS011;30778;53.574;7.770;2023-06-10T00:55:53;9.80;;;2.42;;
45039;SDS011;30778;53.574;7.770;2023-06-10T00:58:18;3.55;;;1.52;;
45039;SDS011;30778;53.574;7.770;2023-06-10T01:00:44;9.18;;;2.75;;
45039;SDS011;30778;53.574;7.770;2023-06-10T01:03:12;7.50;;;2.17;;
45039;SDS011;30778;53.574;7.770;2023-06-10T01:05:38;8.50;;;2.42;;
45039;SDS011;30778;53.574;7.770;2023-06-10T01:08:09;9.52;;;2.40;;
45039;SDS011;30778;53.574;7.770;2023-06-10T01:13:20;6.43;;;2.40;;
45039;SDS011;30778;53.574;7.770;2023-06-10T01:15:50;5.63;;;2.05;;
45039;SDS011;30778;53.574;7.770;2023-06-10T01:18:16;5.65;;;2.25;;
45039;SDS011;30778;53.574;7.770;2023-06-10T01:20:42;6.32;;;2.63;;
45039;SDS011;30778;53.574;7.770;2023-06-10T01:23:11;8.15;;;2.83;;
45039;SDS011;30778;53.574;7.770;2023-06-10T01:25:39;6.78;;;2.58;;
45039;SDS011;30778;53.574;7.770;2023-06-10T01:33:29;9.07;;;2.08;;
45039;SDS011;30778;53.574;7.770;2023-06-10T01:35:58;6.25;;;2.47;;
45039;SDS011;30778;53.574;7.770;2023-06-10T01:38:27;6.32;;;2.83;;
45039;SDS011;30778;53.574;7.770;2023-06-10T01:40:57;11.30;;;3.35;;
45039;SDS011;30778;53.574;7.770;2023-06-10T01:43:24;9.13;;;2.17;;
45039;SDS011;30778;53.574;7.770;2023-06-10T01:45:49;9.57;;;2.55;;
45039;SDS011;30778;53.574;7.770;2023-06-10T01:48:15;4.90;;;2.55;;
45039;SDS011;30778;53.574;7.770;2023-06-10T01:50:41;9.00;;;3.03;;
45039;SDS011;30778;53.574;7.770;2023-06-10T01:53:06;9.90;;;3.33;;
45039;SDS011;30778;53.574;7.770;2023-06-10T01:55:32;8.35;;;2.53;;
45039;SDS011;30778;53.574;7.770;2023-06-10T01:57:57;5.55;;;2.83;;
45039;SDS011;30778;53.574;7.770;2023-06-10T02:00:23;8.05;;;2.53;;
45039;SDS011;30778;53.574;7.770;2023-06-10T02:02:48;8.75;;;3.20;;
45039;SDS011;30778;53.574;7.770;2023-06-10T02:05:14;12.10;;;2.72;;
45039;SDS011;30778;53.574;7.770;2023-06-10T02:07:41;6.30;;;3.03;;
45039;SDS011;30778;53.574;7.770;2023-06-10T02:10:06;11.55;;;3.15;;
45039;SDS011;30778;53.574;7.770;2023-06-10T02:12:33;6.40;;;2.47;;
45039;SDS011;30778;53.574;7.770;2023-06-10T02:14:58;8.43;;;3.53;;
45039;SDS011;30778;53.574;7.770;2023-06-10T02:17:24;11.18;;;3.33;;
45039;SDS011;30778;53.574;7.770;2023-06-10T02:19:49;5.57;;;2.80;;
45039;SDS011;30778;53.574;7.770;2023-06-10T02:22:21;13.50;;;2.75;;
45039;SDS011;30778;53.574;7.770;2023-06-10T02:24:48;6.97;;;2.97;;
45039;SDS011;30778;53.574;7.770;2023-06-10T02:27:14;6.78;;;2.47;;
45039;SDS011;30778;53.574;7.770;2023-06-10T02:29:40;7.72;;;2.78;;
45039;SDS011;30778;53.574;7.770;2023-06-10T02:32:07;4.55;;;2.80;;
45039;SDS011;30778;53.574;7.770;2023-06-10T02:34:33;7.38;;;3.78;;
45039;SDS011;30778;53.574;7.770;2023-06-10T02:36:59;9.50;;;3.65;;
45039;SDS011;30778;53.574;7.770;2023-06-10T02:39:27;18.30;;;4.88;;
45039;SDS011;30778;53.574;7.770;2023-06-10T02:41:56;8.65;;;3.63;;
45039;SDS011;30778;53.574;7.770;2023-06-10T02:44:21;7.35;;;3.80;;
45039;SDS011;30778;53.574;7.770;2023-06-10T02:46:48;11.55;;;4.38;;
45039;SDS011;30778;53.574;7.770;2023-06-10T02:49:13;8.93;;;3.25;;
45039;SDS011;30778;53.574;7.770;2023-06-10T02:51:39;10.10;;;3.97;;
45039;SDS011;30778;53.574;7.770;2023-06-10T02:54:05;9.93;;;3.80;;
45039;SDS011;30778;53.574;7.770;2023-06-10T02:56:30;7.53;;;4.22;;
45039;SDS011;30778;53.574;7.770;2023-06-10T02:59:00;5.57;;;3.40;;
45039;SDS011;30778;53.574;7.770;2023-06-10T03:01:27;15.43;;;4.85;;
45039;SDS011;30778;53.574;7.770;2023-06-10T03:06:25;9.25;;;3.88;;
45039;SDS011;30778;53.574;7.770;2023-06-10T03:08:54;15.18;;;4.18;;
45039;SDS011;30778;53.574;7.770;2023-06-10T03:11:19;9.98;;;4.18;;
45039;SDS011;30778;53.574;7.770;2023-06-10T03:13:46;9.65;;;3.55;;
45039;SDS011;30778;53.574;7.770;2023-06-10T03:16:15;11.73;;;4.72;;
45039;SDS011;30778;53.574;7.770;2023-06-10T03:18:41;14.77;;;4.43;;
45039;SDS011;30778;53.574;7.770;2023-06-10T03:21:07;11.52;;;4.75;;
45039;SDS011;30778;53.574;7.770;2023-06-10T03:23:34;9.98;;;4.50;;
45039;SDS011;30778;53.574;7.770;2023-06-10T03:26:00;9.10;;;5.43;;
45039;SDS011;30778;53.574;7.770;2023-06-10T03:28:28;11.48;;;4.30;;
45039;SDS011;30778;53.574;7.770;2023-06-10T03:30:55;13.02;;;4.82;;
45039;SDS011;30778;53.574;7.770;2023-06-10T03:33:23;15.38;;;4.97;;
45039;SDS011;30778;53.574;7.770;2023-06-10T03:35:49;9.65;;;4.18;;
45039;SDS011;30778;53.574;7.770;2023-06-10T03:38:14;11.05;;;4.90;;
45039;SDS011;30778;53.574;7.770;2023-06-10T03:40:40;16.42;;;4.97;;
45039;SDS011;30778;53.574;7.770;2023-06-10T03:43:06;9.50;;;4.03;;
45039;SDS011;30778;53.574;7.770;2023-06-10T03:45:31;14.02;;;4.20;;
45039;SDS011;30778;53.574;7.770;2023-06-10T03:47:57;9.48;;;4.60;;
45039;SDS011;30778;53.574;7.770;2023-06-10T03:50:29;10.10;;;4.55;;
45039;SDS011;30778;53.574;7.770;2023-06-10T03:52:54;14.50;;;4.55;;
45039;SDS011;30778;53.574;7.770;2023-06-10T03:55:23;11.35;;;4.28;;
45039;SDS011;30778;53.574;7.770;2023-06-10T03:57:49;8.38;;;3.53;;
45039;SDS011;30778;53.574;7.770;2023-06-10T04:00:16;7.53;;;3.15;;
45039;SDS011;30778;53.574;7.770;2023-06-10T04:02:42;9.00;;;3.80;;
45039;SDS011;30778;53.574;7.770;2023-06-10T04:05:20;12.35;;;3.30;;
45039;SDS011;30778;53.574;7.770;2023-06-10T04:07:47;9.95;;;2.63;;
45039;SDS011;30778;53.574;7.770;2023-06-10T04:10:16;6.63;;;2.80;;
45039;SDS011;30778;53.574;7.770;2023-06-10T04:12:41;8.10;;;3.13;;
45039;SDS011;30778;53.574;7.770;2023-06-10T04:15:07;7.53;;;3.17;;
45039;SDS011;30778;53.574;7.770;2023-06-10T04:17:34;12.85;;;3.28;;
45039;SDS011;30778;53.574;7.770;2023-06-10T04:20:00;8.45;;;2.58;;
45039;SDS011;30778;53.574;7.770;2023-06-10T04:22:27;5.57;;;2.67;;
45039;SDS011;30778;53.574;7.770;2023-06-10T04:24:53;8.73;;;3.03;;
45039;SDS011;30778;53.574;7.770;2023-06-10T04:27:19;6.35;;;1.95;;
45039;SDS011;30778;53.574;7.770;2023-06-10T04:29:44;5.80;;;2.70;;
45039;SDS011;30778;53.574;7.770;2023-06-10T04:32:10;5.32;;;2.17;;
45039;SDS011;30778;53.574;7.770;2023-06-10T04:34:36;7.43;;;1.80;;
45039;SDS011;30778;53.574;7.770;2023-06-10T04:37:04;7.40;;;2.30;;
45039;SDS011;30778;53.574;7.770;2023-06-10T04:39:30;8.10;;;2.30;;
45039;SDS011;30778;53.574;7.770;2023-06-10T04:41:57;5.82;;;2.55;;
45039;SDS011;30778;53.574;7.770;2023-06-10T04:44:22;13.02;;;3.15;;
45039;SDS011;30778;53.574;7.770;2023-06-10T04:46:48;7.80;;;2.45;;
45039;SDS011;30778;53.574;7.770;2023-06-10T04:49:17;4.40;;;2.65;;
45039;SDS011;30778;53.574;7.770;2023-06-10T04:51:42;9.85;;;3.40;;
45039;SDS011;30778;53.574;7.770;2023-06-10T04:54:10;9.93;;;1.98;;
45039;SDS011;30778;53.574;7.770;2023-06-10T04:56:36;7.72;;;3.28;;
45039;SDS011;30778;53.574;7.770;2023-06-10T04:59:02;11.57;;;2.85;;
45039;SDS011;30778;53.574;7.770;2023-06-10T05:01:27;5.57;;;2.42;;
45039;SDS011;30778;53.574;7.770;2023-06-10T05:03:55;7.53;;;3.33;;
45039;SDS011;30778;53.574;7.770;2023-06-10T05:06:21;12.88;;;2.95;;
45039;SDS011;30778;53.574;7.770;2023-06-10T05:08:48;8.07;;;2.88;;
45039;SDS011;30778;53.574;7.770;2023-06-10T05:11:14;8.55;;;2.40;;
45039;SDS011;30778;53.574;7.770;2023-06-10T05:13:41;7.43;;;2.80;;
45039;SDS011;30778;53.574;7.770;2023-06-10T05:16:08;7.93;;;3.15;;
45039;SDS011;30778;53.574;7.770;2023-06-10T05:18:34;7.57;;;2.72;;
45039;SDS011;30778;53.574;7.770;2023-06-10T05:21:01;11.00;;;3.20;;
45039;SDS011;30778;53.574;7.770;2023-06-10T05:23:27;5.25;;;1.95;;
45039;SDS011;30778;53.574;7.770;2023-06-10T05:25:53;6.78;;;2.30;;
45039;SDS011;30778;53.574;7.770;2023-06-10T05:28:18;8.73;;;2.28;;
45039;SDS011;30778;53.574;7.770;2023-06-10T05:30:44;10.85;;;4.50;;
45039;SDS011;30778;53.574;7.770;2023-06-10T05:33:10;5.72;;;2.70;;
45039;SDS011;30778;53.574;7.770;2023-06-10T05:35:35;12.27;;;2.25;;
45039;SDS011;30778;53.574;7.770;2023-06-10T05:38:02;6.93;;;1.63;;
45039;SDS011;30778;53.574;7.770;2023-06-10T05:40:27;12.48;;;3.97;;
45039;SDS011;30778;53.574;7.770;2023-06-10T05:42:53;6.18;;;2.05;;
45039;SDS011;30778;53.574;7.770;2023-06-10T05:45:18;7.25;;;2.47;;
45039;SDS011;30778;53.574;7.770;2023-06-10T05:47:47;7.85;;;2.65;;
45039;SDS011;30778;53.574;7.770;2023-06-10T05:50:12;8.23;;;2.45;;
45039;SDS011;30778;53.574;7.770;2023-06-10T05:52:38;7.75;;;3.03;;
45039;SDS011;30778;53.574;7.770;2023-06-10T05:55:05;7.00;;;2.85;;
45039;SDS011;30778;53.574;7.770;2023-06-10T05:57:32;9.43;;;3.63;;
45039;SDS011;30778;53.574;7.770;2023-06-10T05:59:57;9.38;;;3.13;;
45039;SDS011;30778;53.574;7.770;2023-06-10T06:02:23;15.02;;;6.70;;
45039;SDS011;30778;53.574;7.770;2023-06-10T06:04:49;7.70;;;3.15;;
45039;SDS011;30778;53.574;7.770;2023-06-10T06:07:14;12.30;;;3.00;;
45039;SDS011;30778;53.574;7.770;2023-06-10T06:09:40;10.45;;;2.60;;
45039;SDS011;30778;53.574;7.770;2023-06-10T06:12:06;14.07;;;3.17;;
45039;SDS011;30778;53.574;7.770;2023-06-10T06:14:32;5.35;;;2.83;;
45039;SDS011;30778;53.574;7.770;2023-06-10T06:17:02;16.00;;;4.05;;
45039;SDS011;30778;53.574;7.770;2023-06-10T06:19:30;10.95;;;2.60;;
45039;SDS011;30778;53.574;7.770;2023-06-10T06:21:56;7.05;;;2.97;;
45039;SDS011;30778;53.574;7.770;2023-06-10T06:24:21;6.80;;;3.67;;
45039;SDS011;30778;53.574;7.770;2023-06-10T06:26:47;8.93;;;2.92;;
45039;SDS011;30778;53.574;7.770;2023-06-10T06:29:12;8.50;;;3.42;;
45039;SDS011;30778;53.574;7.770;2023-06-10T06:31:38;7.97;;;3.25;;
45039;SDS011;30778;53.574;7.770;2023-06-10T06:34:03;8.05;;;2.97;;
45039;SDS011;30778;53.574;7.770;2023-06-10T06:36:29;7.72;;;4.00;;
45039;SDS011;30778;53.574;7.770;2023-06-10T06:38:55;6.68;;;3.03;;
45039;SDS011;30778;53.574;7.770;2023-06-10T06:41:22;5.65;;;2.63;;
45039;SDS011;30778;53.574;7.770;2023-06-10T06:43:48;6.00;;;3.72;;
45039;SDS011;30778;53.574;7.770;2023-06-10T06:46:23;9.25;;;3.35;;
45039;SDS011;30778;53.574;7.770;2023-06-10T06:48:48;7.43;;;3.67;;
45039;SDS011;30778;53.574;7.770;2023-06-10T06:51:14;9.15;;;2.88;;
45039;SDS011;30778;53.574;7.770;2023-06-10T06:53:40;10.00;;;3.22;;
45039;SDS011;30778;53.574;7.770;2023-06-10T06:56:10;6.45;;;3.05;;
45039;SDS011;30778;53.574;7.770;2023-06-10T06:58:36;7.00;;;3.13;;
45039;SDS011;30778;53.574;7.770;2023-06-10T07:01:01;5.63;;;3.25;;
45039;SDS011;30778;53.574;7.770;2023-06-10T07:03:27;7.65;;;3.05;;
45039;SDS011;30778;53.574;7.770;2023-06-10T07:09:03;6.43;;;2.70;;
45039;SDS011;30778;53.574;7.770;2023-06-10T07:11:29;8.85;;;3.22;;
45039;SDS011;30778;53.574;7.770;2023-06-10T07:13:56;3.70;;;2.65;;
45039;SDS011;30778;53.574;7.770;2023-06-10T07:16:21;6.32;;;2.70;;
45039;SDS011;30778;53.574;7.770;2023-06-10T07:18:47;8.95;;;3.75;;
45039;SDS011;30778;53.574;7.770;2023-06-10T07:21:13;10.90;;;3.10;;
45039;SDS011;30778;53.574;7.770;2023-06-10T07:23:41;10.05;;;2.53;;
45039;SDS011;30778;53.574;7.770;2023-06-10T07:26:07;5.47;;;2.90;;
45039;SDS011;30778;53.574;7.770;2023-06-10T07:28:33;10.48;;;2.70;;
45039;SDS011;30778;53.574;7.770;2023-06-10T07:30:58;4.53;;;2.53;;
45039;SDS011;30778;53.574;7.770;2023-06-10T07:33:24;6.90;;;3.35;;
45039;SDS011;30778;53.574;7.770;2023-06-10T07:35:49;7.90;;;2.83;;
45039;SDS011;30778;53.574;7.770;2023-06-10T07:38:15;7.32;;;3.40;;
45039;SDS011;30778;53.574;7.770;2023-06-10T07:40:42;7.38;;;3.42;;
45039;SDS011;30778;53.574;7.770;2023-06-10T07:43:07;7.65;;;3.05;;
45039;SDS011;30778;53.574;7.770;2023-06-10T07:45:33;9.30;;;4.18;;
45039;SDS011;30778;53.574;7.770;2023-06-10T07:47:58;7.47;;;3.00;;
45039;SDS011;30778;53.574;7.770;2023-06-10T07:50:23;8.13;;;2.55;;
45039;SDS011;30778;53.574;7.770;2023-06-10T07:52:49;8.10;;;2.60;;
45039;SDS011;30778;53.574;7.770;2023-06-10T07:55:14;8.85;;;2.83;;
45039;SDS011;30778;53.574;7.770;2023-06-10T07:57:40;7.47;;;2.60;;
45039;SDS011;30778;53.574;7.770;2023-06-10T08:00:06;9.50;;;3.10;;
45039;SDS011;30778;53.574;7.770;2023-06-10T08:02:37;5.10;;;2.58;;
45039;SDS011;30778;53.574;7.770;2023-06-10T08:05:03;7.35;;;2.53;;
45039;SDS011;30778;53.574;7.770;2023-06-10T08:07:29;5.07;;;2.47;;
45039;SDS011;30778;53.574;7.770;2023-06-10T08:09:56;8.13;;;2.25;;
45039;SDS011;30778;53.574;7.770;2023-06-10T08:12:21;7.43;;;2.53;;
45039;SDS011;30778;53.574;7.770;2023-06-10T08:14:47;7.75;;;3.08;;
45039;SDS011;30778;53.574;7.770;2023-06-10T08:17:12;12.52;;;3.42;;
45039;SDS011;30778;53.574;7.770;2023-06-10T08:19:38;7.85;;;2.70;;
45039;SDS011;30778;53.574;7.770;2023-06-10T08:22:04;7.15;;;2.33;;
45039;SDS011;30778;53.574;7.770;2023-06-10T08:24:29;5.75;;;2.45;;
45039;SDS011;30778;53.574;7.770;2023-06-10T08:26:55;8.93;;;2.20;;
45039;SDS011;30778;53.574;7.770;2023-06-10T08:29:22;6.15;;;2.72;;
45039;SDS011;30778;53.574;7.770;2023-06-10T08:31:48;7.97;;;3.17;;
45039;SDS011;30778;53.574;7.770;2023-06-10T08:34:16;7.03;;;2.58;;
45039;SDS011;30778;53.574;7.770;2023-06-10T08:36:42;3.70;;;2.03;;
45039;SDS011;30778;53.574;7.770;2023-06-10T08:39:08;6.50;;;2.40;;
45039;SDS011;30778;53.574;7.770;2023-06-10T08:41:35;8.82;;;2.53;;
45039;SDS011;30778;53.574;7.770;2023-06-10T08:49:01;3.88;;;2.35;;
45039;SDS011;30778;53.574;7.770;2023-06-10T08:51:29;6.40;;;2.38;;
45039;SDS011;30778;53.574;7.770;2023-06-10T08:54:00;3.50;;;2.65;;
45039;SDS011;30778;53.574;7.770;2023-06-10T08:56:29;13.18;;;4.70;;
45039;SDS011;30778;53.574;7.770;2023-06-10T08:58:56;3.60;;;2.33;;
45039;SDS011;30778;53.574;7.770;2023-06-10T09:01:23;3.58;;;2.05;;
45039;SDS011;30778;53.574;7.770;2023-06-10T09:03:51;16.65;;;3.25;;
45039;SDS011;30778;53.574;7.770;2023-06-10T09:06:16;7.10;;;2.53;;
45039;SDS011;30778;53.574;7.770;2023-06-10T09:08:43;4.53;;;2.42;;
45039;SDS011;30778;53.574;7.770;2023-06-10T09:11:09;5.35;;;2.60;;
45039;SDS011;30778;53.574;7.770;2023-06-10T09:13:34;4.13;;;2.60;;
45039;SDS011;30778;53.574;7.770;2023-06-10T09:16:00;6.70;;;2.28;;
45039;SDS011;30778;53.574;7.770;2023-06-10T09:18:28;7.68;;;2.70;;
45039;SDS011;30778;53.574;7.770;2023-06-10T09:20:54;4.85;;;1.73;;
45039;SDS011;30778;53.574;7.770;2023-06-10T09:23:21;7.53;;;2.08;;
45039;SDS011;30778;53.574;7.770;2023-06-10T09:25:46;4.57;;;2.05;;
45039;SDS011;30778;53.574;7.770;2023-06-10T09:28:22;11.88;;;3.10;;
45039;SDS011;30778;53.574;7.770;2023-06-10T09:30:48;5.78;;;2.88;;
45039;SDS011;30778;53.574;7.770;2023-06-10T09:33:14;3.78;;;1.95;;
45039;SDS011;30778;53.574;7.770;2023-06-10T09:35:47;6.10;;;2.20;;
45039;SDS011;30778;53.574;7.770;2023-06-10T09:38:19;5.13;;;2.35;;
45039;SDS011;30778;53.574;7.770;2023-06-10T09:40:50;8.25;;;1.88;;
45039;SDS011;30778;53.574;7.770;2023-06-10T09:43:16;6.93;;;3.13;;
45039;SDS011;30778;53.574;7.770;2023-06-10T09:45:42;4.20;;;2.47;;
45039;SDS011;30778;53.574;7.770;2023-06-10T09:48:08;5.03;;;1.67;;
45039;SDS011;30778;53.574;7.770;2023-06-10T09:50:36;10.30;;;2.45;;
45039;SDS011;30778;53.574;7.770;2023-06-10T09:53:09;6.47;;;2.15;;
45039;SDS011;30778;53.574;7.770;2023-06-10T09:55:39;6.75;;;2.55;;
45039;SDS011;30778;53.574;7.770;2023-06-10T09:58:06;6.32;;;1.75;;
45039;SDS011;30778;53.574;7.770;2023-06-10T10:00:31;8.55;;;1.75;;
45039;SDS011;30778;53.574;7.770;2023-06-10T10:03:00;4.93;;;2.55;;
45039;SDS011;30778;53.574;7.770;2023-06-10T10:05:26;6.65;;;1.83;;
45039;SDS011;30778;53.574;7.770;2023-06-10T10:07:52;6.45;;;1.83;;
45039;SDS011;30778;53.574;7.770;2023-06-10T10:10:19;6.78;;;1.83;;
45039;SDS011;30778;53.574;7.770;2023-06-10T10:12:46;4.65;;;1.70;;
45039;SDS011;30778;53.574;7.770;2023-06-10T10:15:12;3.97;;;1.67;;
45039;SDS011;30778;53.574;7.770;2023-06-10T10:17:46;6.22;;;2.00;;
45039;SDS011;30778;53.574;7.770;2023-06-10T10:20:14;10.25;;;1.55;;
45039;SDS011;30778;53.574;7.770;2023-06-10T10:22:45;7.28;;;1.67;;
45039;SDS011;30778;53.574;7.770;2023-06-10T10:25:21;5.80;;;1.73;;
45039;SDS011;30778;53.574;7.770;2023-06-10T10:27:54;5.00;;;1.48;;
45039;SDS011;30778;53.574;7.770;2023-06-10T10:30:22;5.93;;;1.98;;
45039;SDS011;30778;53.574;7.770;2023-06-10T10:33:05;12.13;;;2.25;;
45039;SDS011;30778;53.574;7.770;2023-06-10T10:35:34;5.65;;;2.22;;
45039;SDS011;30778;53.574;7.770;2023-06-10T10:38:02;4.88;;;1.67;;
45039;SDS011;30778;53.574;7.770;2023-06-10T10:40:29;5.80;;;1.80;;
45039;SDS011;30778;53.574;7.770;2023-06-10T10:42:55;8.63;;;2.42;;
45039;SDS011;30778;53.574;7.770;2023-06-10T10:45:21;9.43;;;1.58;;
45039;SDS011;30778;53.574;7.770;2023-06-10T10:47:51;6.65;;;2.10;;
45039;SDS011;30778;53.574;7.770;2023-06-10T10:50:18;5.00;;;2.50;;
45039;SDS011;30778;53.574;7.770;2023-06-10T10:55:24;9.10;;;2.80;;
45039;SDS011;30778;53.574;7.770;2023-06-10T10:57:56;7.80;;;1.65;;
45039;SDS011;30778;53.574;7.770;2023-06-10T11:00:27;5.95;;;1.88;;
45039;SDS011;30778;53.574;7.770;2023-06-10T11:02:59;4.90;;;2.30;;
45039;SDS011;30778;53.574;7.770;2023-06-10T11:05:38;7.80;;;3.65;;
45039;SDS011;30778;53.574;7.770;2023-06-10T11:08:14;4.50;;;2.63;;
45039;SDS011;30778;53.574;7.770;2023-06-10T11:10:41;6.05;;;2.03;;
45039;SDS011;30778;53.574;7.770;2023-06-10T11:13:19;3.13;;;2.28;;
45039;SDS011;30778;53.574;7.770;2023-06-10T11:15:49;6.85;;;1.88;;
45039;SDS011;30778;53.574;7.770;2023-06-10T11:18:34;4.07;;;1.77;;
45039;SDS011;30778;53.574;7.770;2023-06-10T11:21:04;5.70;;;1.95;;
45039;SDS011;30778;53.574;7.770;2023-06-10T11:23:32;9.73;;;2.55;;
45039;SDS011;30778;53.574;7.770;2023-06-10T11:26:18;4.05;;;1.33;;
45039;SDS011;30778;53.574;7.770;2023-06-10T11:31:27;5.03;;;1.50;;
45039;SDS011;30778;53.574;7.770;2023-06-10T11:33:54;6.60;;;1.92;;
45039;SDS011;30778;53.574;7.770;2023-06-10T11:36:24;3.45;;;1.10;;
45039;SDS011;30778;53.574;7.770;2023-06-10T11:38:57;5.43;;;1.80;;
45039;SDS011;30778;53.574;7.770;2023-06-10T11:41:24;6.88;;;1.60;;
45039;SDS011;30778;53.574;7.770;2023-06-10T11:43:52;4.93;;;1.63;;
45039;SDS011;30778;53.574;7.770;2023-06-10T11:46:19;6.38;;;2.10;;
45039;SDS011;30778;53.574;7.770;2023-06-10T11:48:48;7.88;;;2.03;;
45039;SDS011;30778;53.574;7.770;2023-06-10T11:51:14;6.95;;;1.65;;
45039;SDS011;30778;53.574;7.770;2023-06-10T11:53:40;6.10;;;1.60;;
45039;SDS011;30778;53.574;7.770;2023-06-10T11:56:05;11.85;;;1.75;;
45039;SDS011;30778;53.574;7.770;2023-06-10T11:58:31;5.68;;;1.35;;
45039;SDS011;30778;53.574;7.770;2023-06-10T12:00:56;6.30;;;1.90;;
45039;SDS011;30778;53.574;7.770;2023-06-10T12:03:23;4.88;;;1.00;;
45039;SDS011;30778;53.574;7.770;2023-06-10T12:05:56;4.53;;;1.40;;
45039;SDS011;30778;53.574;7.770;2023-06-10T12:08:23;6.18;;;1.67;;
45039;SDS011;30778;53.574;7.770;2023-06-10T12:10:49;7.43;;;1.55;;
45039;SDS011;30778;53.574;7.770;2023-06-10T12:13:14;6.30;;;1.20;;
45039;SDS011;30778;53.574;7.770;2023-06-10T12:15:43;5.65;;;1.45;;
45039;SDS011;30778;53.574;7.770;2023-06-10T12:18:19;6.72;;;1.30;;
45039;SDS011;30778;53.574;7.770;2023-06-10T12:20:46;8.60;;;2.72;;
45039;SDS011;30778;53.574;7.770;2023-06-10T12:23:13;6.90;;;1.20;;
45039;SDS011;30778;53.574;7.770;2023-06-10T12:25:42;3.42;;;1.05;;
45039;SDS011;30778;53.574;7.770;2023-06-10T12:28:25;4.18;;;1.17;;
45039;SDS011;30778;53.574;7.770;2023-06-10T12:30:51;4.45;;;1.25;;
45039;SDS011;30778;53.574;7.770;2023-06-10T12:33:31;3.45;;;1.20;;
45039;SDS011;30778;53.574;7.770;2023-06-10T12:35:57;5.22;;;1.65;;
45039;SDS011;30778;53.574;7.770;2023-06-10T12:38:26;7.75;;;1.77;;
45039;SDS011;30778;53.574;7.770;2023-06-10T12:41:00;7.25;;;1.70;;
45039;SDS011;30778;53.574;7.770;2023-06-10T12:43:26;6.93;;;1.77;;
45039;SDS011;30778;53.574;7.770;2023-06-10T12:45:52;4.65;;;1.52;;
45039;SDS011;30778;53.574;7.770;2023-06-10T12:48:20;6.95;;;1.75;;
45039;SDS011;30778;53.574;7.770;2023-06-10T12:50:51;6.88;;;1.27;;
45039;SDS011;30778;53.574;7.770;2023-06-10T12:53:18;12.45;;;1.40;;
45039;SDS011;30778;53.574;7.770;2023-06-10T12:55:44;7.78;;;1.85;;
45039;SDS011;30778;53.574;7.770;2023-06-10T12:58:11;4.20;;;1.90;;
45039;SDS011;30778;53.574;7.770;2023-06-10T13:00:37;8.02;;;1.42;;
45039;SDS011;30778;53.574;7.770;2023-06-10T13:03:03;7.25;;;1.85;;
45039;SDS011;30778;53.574;7.770;2023-06-10T13:05:30;6.07;;;1.10;;
45039;SDS011;30778;53.574;7.770;2023-06-10T13:07:57;1.77;;;0.93;;
45039;SDS011;30778;53.574;7.770;2023-06-10T13:10:24;4.63;;;1.40;;
45039;SDS011;30778;53.574;7.770;2023-06-10T13:12:50;6.35;;;1.63;;
45039;SDS011;30778;53.574;7.770;2023-06-10T13:15:16;5.03;;;1.45;;
45039;SDS011;30778;53.574;7.770;2023-06-10T13:17:43;3.67;;;1.00;;
45039;SDS011;30778;53.574;7.770;2023-06-10T13:20:10;5.65;;;1.52;;
45039;SDS011;30778;53.574;7.770;2023-06-10T13:22:36;3.65;;;0.73;;
45039;SDS011;30778;53.574;7.770;2023-06-10T13:25:05;3.17;;;1.33;;
45039;SDS011;30778;53.574;7.770;2023-06-10T13:27:34;4.88;;;1.05;;
45039;SDS011;30778;53.574;7.770;2023-06-10T13:30:00;5.07;;;0.90;;
45039;SDS011;30778;53.574;7.770;2023-06-10T13:32:26;5.38;;;1.15;;
45039;SDS011;30778;53.574;7.770;2023-06-10T13:34:51;4.88;;;1.40;;
45039;SDS011;30778;53.574;7.770;2023-06-10T13:37:18;6.35;;;1.40;;
45039;SDS011;30778;53.574;7.770;2023-06-10T13:39:44;3.08;;;0.73;;
45039;SDS011;30778;53.574;7.770;2023-06-10T13:42:13;6.43;;;1.55;;
45039;SDS011;30778;53.574;7.770;2023-06-10T13:44:40;8.85;;;1.55;;
45039;SDS011;30778;53.574;7.770;2023-06-10T13:47:05;5.03;;;1.20;;
45039;SDS011;30778;53.574;7.770;2023-06-10T13:49:31;6.53;;;1.17;;
45039;SDS011;30778;53.574;7.770;2023-06-10T13:51:57;5.55;;;1.45;;
45039;SDS011;30778;53.574;7.770;2023-06-10T13:54:22;4.57;;;1.25;;
45039;SDS011;30778;53.574;7.770;2023-06-10T13:56:48;7.00;;;0.85;;
45039;SDS011;30778;53.574;7.770;2023-06-10T13:59:13;3.90;;;0.85;;
45039;SDS011;30778;53.574;7.770;2023-06-10T14:01:39;3.75;;;1.00;;
45039;SDS011;30778;53.574;7.770;2023-06-10T14:04:05;2.08;;;0.85;;
45039;SDS011;30778;53.574;7.770;2023-06-10T14:06:31;2.92;;;0.47;;
45039;SDS011;30778;53.574;7.770;2023-06-10T14:08:58;5.57;;;1.30;;
45039;SDS011;30778;53.574;7.770;2023-06-10T14:11:24;5.38;;;1.15;;
45039;SDS011;30778;53.574;7.770;2023-06-10T14:13:50;4.78;;;0.95;;
45039;SDS011;30778;53.574;7.770;2023-06-10T14:16:15;4.05;;;1.42;;
45039;SDS011;30778;53.574;7.770;2023-06-10T14:18:41;6.65;;;1.50;;
45039;SDS011;30778;53.574;7.770;2023-06-10T14:21:06;4.65;;;1.20;;
45039;SDS011;30778;53.574;7.770;2023-06-10T14:23:32;3.38;;;1.05;;
45039;SDS011;30778;53.574;7.770;2023-06-10T14:25:57;4.63;;;0.93;;
45039;SDS011;30778;53.574;7.770;2023-06-10T14:28:24;4.55;;;1.10;;
45039;SDS011;30778;53.574;7.770;2023-06-10T14:30:51;4.60;;;0.88;;
45039;SDS011;30778;53.574;7.770;2023-06-10T14:33:17;9.25;;;0.93;;
45039;SDS011;30778;53.574;7.770;2023-06-10T14:35:43;7.57;;;1.65;;
45039;SDS011;30778;53.574;7.770;2023-06-10T14:38:08;5.15;;;1.17;;
45039;SDS011;30778;53.574;7.770;2023-06-10T14:40:34;3.58;;;0.85;;
45039;SDS011;30778;53.574;7.770;2023-06-10T14:43:00;6.82;;;1.30;;
45039;SDS011;30778;53.574;7.770;2023-06-10T14:45:26;1.85;;;0.50;;
45039;SDS011;30778;53.574;7.770;2023-06-10T14:47:52;7.18;;;0.90;;
45039;SDS011;30778;53.574;7.770;2023-06-10T14:50:17;6.80;;;1.55;;
45039;SDS011;30778;53.574;7.770;2023-06-10T14:52:43;3.45;;;1.00;;
45039;SDS011;30778;53.574;7.770;2023-06-10T14:55:08;4.10;;;1.20;;
45039;SDS011;30778;53.574;7.770;2023-06-10T14:57:34;3.10;;;0.80;;
45039;SDS011;30778;53.574;7.770;2023-06-10T14:59:59;4.25;;;1.25;;
45039;SDS011;30778;53.574;7.770;2023-06-10T15:02:25;5.00;;;1.02;;
45039;SDS011;30778;53.574;7.770;2023-06-10T15:04:51;6.78;;;1.00;;
45039;SDS011;30778;53.574;7.770;2023-06-10T15:07:17;5.88;;;1.25;;
45039;SDS011;30778;53.574;7.770;2023-06-10T15:09:43;3.92;;;0.60;;